createdAt,value
2022-11-24T00:02:11.193Z,8.81
2022-11-24T00:05:00.654Z,8.79
2022-11-24T00:07:50.094Z,8.81
2022-11-24T00:10:39.449Z,8.81
2022-11-24T00:13:29.210Z,8.81
2022-11-24T00:16:22.074Z,8.81
2022-11-24T00:19:18.331Z,8.78
2022-11-24T00:22:09.020Z,8.74
2022-11-24T00:24:58.394Z,8.80
2022-11-24T00:27:47.645Z,8.83
2022-11-24T00:30:37.074Z,8.80
2022-11-24T00:33:26.431Z,8.93
2022-11-24T00:36:18.636Z,8.84
2022-11-24T00:39:11.095Z,8.90
2022-11-24T00:42:00.378Z,8.95
2022-11-24T00:44:49.683Z,8.97
2022-11-24T00:47:38.977Z,8.84
2022-11-24T00:50:28.272Z,8.97
2022-11-24T00:53:19.203Z,8.97
2022-11-24T00:56:08.992Z,8.91
2022-11-24T00:58:58.774Z,8.96
2022-11-24T01:01:48.056Z,8.95
2022-11-24T01:04:37.479Z,8.99
2022-11-24T01:07:26.794Z,9.05
2022-11-24T01:10:18.126Z,9.02
2022-11-24T01:13:07.586Z,9.04
2022-11-24T01:15:56.906Z,8.96
2022-11-24T01:18:46.505Z,9.03
2022-11-24T01:21:35.956Z,8.92
2022-11-24T01:24:25.322Z,9.09
2022-11-24T01:27:15.960Z,9.03
2022-11-24T01:30:07.856Z,9.06
2022-11-24T01:32:57.169Z,9.03
2022-11-24T01:35:46.407Z,9.06
2022-11-24T01:38:35.729Z,9.07
2022-11-24T01:41:27.240Z,9.06
2022-11-24T01:44:27.671Z,8.91
2022-11-24T01:47:35.345Z,8.91
2022-11-24T01:50:25.248Z,9.02
2022-11-24T01:53:15.826Z,9.02
2022-11-24T01:56:06.683Z,8.99
2022-11-24T01:58:59.581Z,8.92
2022-11-24T02:01:54.532Z,9.01
2022-11-24T02:04:45.481Z,8.94
2022-11-24T02:07:36.016Z,9.01
2022-11-24T02:10:25.557Z,8.95
2022-11-24T02:13:16.727Z,8.94
2022-11-24T02:16:08.499Z,8.96
2022-11-24T02:18:59.495Z,8.96
2022-11-24T02:21:48.805Z,8.93
2022-11-24T02:24:47.324Z,8.96
2022-11-24T02:27:38.439Z,8.94
2022-11-24T02:30:27.896Z,9.04
2022-11-24T02:33:18.031Z,9.08
2022-11-24T02:36:08.575Z,9.02
2022-11-24T02:38:57.858Z,9.00
2022-11-24T02:41:53.378Z,8.99
2022-11-24T02:44:48.771Z,8.97
2022-11-24T02:47:37.940Z,9.03
2022-11-24T02:50:27.223Z,8.93
2022-11-24T02:53:16.552Z,8.98
2022-11-24T02:56:06.553Z,9.02
2022-11-24T02:58:55.817Z,9.03
2022-11-24T03:01:46.628Z,9.03
2022-11-24T03:04:36.384Z,9.12
2022-11-24T03:07:25.982Z,9.13
2022-11-24T03:10:15.348Z,9.14
2022-11-24T03:13:04.638Z,9.17
2022-11-24T03:15:56.994Z,9.12
2022-11-24T03:18:48.742Z,9.16
2022-11-24T03:21:38.591Z,9.15
2022-11-24T03:24:27.965Z,9.19
2022-11-24T03:27:17.235Z,9.19
2022-11-24T03:30:08.333Z,9.20
2022-11-24T03:32:57.705Z,9.31
2022-11-24T03:35:48.302Z,9.44
2022-11-24T03:38:37.647Z,9.37
2022-11-24T03:41:27.203Z,9.52
2022-11-24T03:44:16.720Z,9.53
2022-11-24T03:47:06.138Z,9.55
2022-11-24T03:49:55.498Z,9.57
2022-11-24T03:52:46.268Z,9.64
2022-11-24T03:55:35.802Z,9.63
2022-11-24T03:58:26.091Z,9.67
2022-11-24T04:01:15.482Z,9.67
2022-11-24T04:04:04.945Z,9.75
2022-11-24T04:06:54.299Z,9.78
2022-11-24T04:09:45.191Z,9.85
2022-11-24T04:12:46.158Z,9.97
2022-11-24T04:15:35.501Z,9.92
2022-11-24T04:18:24.786Z,9.96
2022-11-24T04:21:14.360Z,9.96
2022-11-24T04:24:03.880Z,10.02
2022-11-24T04:26:54.576Z,9.99
2022-11-24T04:29:44.065Z,10.04
2022-11-24T04:32:33.610Z,10.03
2022-11-24T04:35:23.091Z,10.03
2022-11-24T04:38:12.448Z,10.07
2022-11-24T04:41:03.844Z,10.05
2022-11-24T04:43:54.500Z,10.06
2022-11-24T04:46:43.927Z,10.17
2022-11-24T04:49:33.436Z,10.18
2022-11-24T04:52:24.737Z,10.12
2022-11-24T04:55:14.125Z,10.10
2022-11-24T04:58:03.522Z,10.18
2022-11-24T05:00:54.208Z,10.16
2022-11-24T05:03:43.721Z,10.15
2022-11-24T05:06:33.305Z,10.19
2022-11-24T05:09:22.556Z,10.12
2022-11-24T05:12:11.902Z,10.12
2022-11-24T05:15:02.380Z,10.05
2022-11-24T05:17:53.064Z,10.12
2022-11-24T05:20:44.718Z,10.16
2022-11-24T05:23:34.095Z,10.11
2022-11-24T05:26:23.497Z,10.11
2022-11-24T05:29:12.761Z,10.05
2022-11-24T05:32:01.999Z,10.15
2022-11-24T05:34:54.004Z,10.13
2022-11-24T05:37:43.331Z,10.08
2022-11-24T05:40:33.288Z,9.99
2022-11-24T05:43:22.668Z,9.92
2022-11-24T05:46:12.015Z,9.84
2022-11-24T05:49:01.386Z,9.79
2022-11-24T05:51:52.067Z,9.69
2022-11-24T05:54:41.691Z,9.73
2022-11-24T05:57:30.969Z,9.73
2022-11-24T06:00:20.709Z,9.72
2022-11-24T06:03:11.972Z,9.71
2022-11-24T06:06:01.495Z,9.68
2022-11-24T06:08:52.154Z,9.72
2022-11-24T06:11:41.433Z,9.72
2022-11-24T06:14:30.907Z,9.80
2022-11-24T06:17:20.301Z,9.99
2022-11-24T06:20:11.869Z,10.19
2022-11-24T06:23:01.363Z,10.42
2022-11-24T06:25:52.353Z,10.66
2022-11-24T06:28:41.901Z,10.87
2022-11-24T06:31:31.276Z,11.04
2022-11-24T06:34:20.787Z,11.17
2022-11-24T06:37:10.283Z,11.35
2022-11-24T06:39:59.680Z,11.46
2022-11-24T06:42:53.574Z,11.51
2022-11-24T06:45:42.876Z,11.57
2022-11-24T06:48:33.368Z,11.59
2022-11-24T06:51:22.688Z,11.49
2022-11-24T06:54:16.051Z,11.47
2022-11-24T06:57:05.519Z,11.44
2022-11-24T06:59:57.480Z,11.40
2022-11-24T07:02:46.771Z,11.33
2022-11-24T07:05:36.224Z,11.28
2022-11-24T07:08:25.710Z,11.17
2022-11-24T07:11:17.478Z,11.20
2022-11-24T07:14:07.284Z,11.25
2022-11-24T07:16:58.152Z,11.20
2022-11-24T07:19:47.449Z,11.21
2022-11-24T07:22:37.062Z,11.33
2022-11-24T07:25:26.398Z,11.36
2022-11-24T07:28:15.709Z,11.32
2022-11-24T07:31:08.409Z,11.39
2022-11-24T07:33:59.270Z,11.34
2022-11-24T07:36:48.631Z,11.31
2022-11-24T07:39:37.845Z,11.33
2022-11-24T07:42:27.242Z,11.35
2022-11-24T07:45:16.774Z,11.39
2022-11-24T07:48:06.543Z,11.28
2022-11-24T07:51:00.098Z,11.28
2022-11-24T07:53:49.481Z,11.22
2022-11-24T07:56:38.882Z,11.27
2022-11-24T07:59:28.202Z,11.35
2022-11-24T08:02:17.501Z,11.32
2022-11-24T08:05:07.635Z,11.32
2022-11-24T08:08:00.709Z,11.34
2022-11-24T08:10:49.971Z,11.38
2022-11-24T08:13:40.110Z,11.40
2022-11-24T08:16:29.463Z,11.38
2022-11-24T08:19:18.871Z,11.52
2022-11-24T08:22:08.379Z,11.54
2022-11-24T08:24:59.222Z,11.62
2022-11-24T08:27:48.538Z,11.64
2022-11-24T08:30:37.977Z,11.71
2022-11-24T08:33:27.545Z,11.81
2022-11-24T08:36:19.767Z,11.87
2022-11-24T08:39:09.237Z,11.89
2022-11-24T08:42:00.227Z,11.88
2022-11-24T08:44:49.528Z,11.89
2022-11-24T08:47:39.153Z,11.85
2022-11-24T08:50:28.545Z,11.67
2022-11-24T08:53:17.850Z,11.63
2022-11-24T08:56:08.999Z,11.43
2022-11-24T08:59:00.685Z,11.22
2022-11-24T09:01:50.226Z,11.09
2022-11-24T09:04:39.558Z,10.84
2022-11-24T09:07:29.053Z,10.67
2022-11-24T09:10:18.810Z,10.55
2022-11-24T09:13:08.147Z,10.39
2022-11-24T09:16:03.471Z,10.26
2022-11-24T09:18:59.980Z,10.25
2022-11-24T09:21:49.326Z,10.17
2022-11-24T09:24:38.604Z,10.11
2022-11-24T09:27:29.277Z,10.03
2022-11-24T09:30:18.959Z,10.00
2022-11-24T09:33:09.606Z,10.01
2022-11-24T09:35:59.278Z,9.95
2022-11-24T09:38:48.881Z,9.94
2022-11-24T09:41:59.699Z,9.98
2022-11-24T09:45:15.642Z,10.02
2022-11-24T09:48:13.630Z,10.04
2022-11-24T09:51:05.589Z,10.19
2022-11-24T09:54:02.594Z,10.26
2022-11-24T09:56:53.742Z,10.34
2022-11-24T09:59:43.806Z,10.40
2022-11-24T10:02:33.925Z,10.49
2022-11-24T10:05:30.353Z,10.53
2022-11-24T10:09:08.785Z,10.47
2022-11-24T10:12:11.892Z,10.54
2022-11-24T10:15:32.540Z,10.63
2022-11-24T10:18:48.470Z,10.70
2022-11-24T10:21:57.410Z,10.70
2022-11-24T10:25:13.727Z,10.66
2022-11-24T10:28:09.373Z,10.62
2022-11-24T10:31:18.535Z,10.71
2022-11-24T10:34:15.710Z,10.65
2022-11-24T10:37:16.425Z,10.74
2022-11-24T10:40:40.433Z,10.74
2022-11-24T10:43:24.211Z,10.84
2022-11-24T10:46:20.473Z,10.81
2022-11-24T10:49:20.247Z,10.87
2022-11-24T10:52:16.074Z,10.84
2022-11-24T10:55:07.394Z,10.79
2022-11-24T10:57:57.247Z,10.81
2022-11-24T11:00:46.600Z,10.83
2022-11-24T11:03:49.007Z,10.79
2022-11-24T11:06:38.313Z,10.76
2022-11-24T11:09:29.091Z,10.93
2022-11-24T11:15:33.706Z,10.99
2022-11-24T11:18:26.652Z,10.93
2022-11-24T11:21:30.652Z,11.02
2022-11-24T11:24:20.560Z,11.13
2022-11-24T11:27:22.206Z,11.33
2022-11-24T11:36:48.301Z,13.29
2022-11-24T11:39:48.301Z,13.73
2022-11-24T11:43:02.450Z,14.27
2022-11-24T11:46:03.811Z,14.47
2022-11-24T11:48:53.274Z,14.69
2022-11-24T11:52:09.648Z,14.80
2022-11-24T11:55:32.056Z,15.04
2022-11-24T11:59:21.328Z,15.14
2022-11-24T12:03:17.575Z,14.89
2022-11-24T12:06:23.245Z,14.61
2022-11-24T12:09:29.172Z,14.45
2022-11-24T12:12:52.683Z,14.24
2022-11-24T12:15:48.523Z,14.01
2022-11-24T12:18:57.515Z,13.88
2022-11-24T12:22:00.097Z,13.71
2022-11-24T12:24:58.257Z,13.66
2022-11-24T12:27:59.485Z,13.47
2022-11-24T12:31:03.583Z,13.37
2022-11-24T12:34:31.818Z,13.58
2022-11-24T12:37:51.062Z,13.62
2022-11-24T12:41:33.766Z,13.66
2022-11-24T12:44:35.692Z,13.64
2022-11-24T12:47:38.799Z,13.68
2022-11-24T12:50:30.657Z,13.78
2022-11-24T12:53:25.693Z,13.81
2022-11-24T12:56:18.097Z,13.74
2022-11-24T12:59:21.896Z,13.58
2022-11-24T13:02:27.642Z,13.74
2022-11-24T13:05:26.822Z,13.70
2022-11-24T13:08:16.732Z,13.79
2022-11-24T13:11:36.139Z,13.79
2022-11-24T13:14:31.772Z,13.85
2022-11-24T13:17:38.318Z,13.52
2022-11-24T13:20:40.575Z,13.19
2022-11-24T13:23:31.192Z,13.05
2022-11-24T13:26:31.458Z,12.88
2022-11-24T13:29:42.807Z,12.63
2022-11-24T13:33:03.783Z,12.60
2022-11-24T13:36:37.550Z,12.52
2022-11-24T13:39:50.898Z,12.62
2022-11-24T13:43:22.573Z,12.50
2022-11-24T13:46:11.992Z,12.32
2022-11-24T13:49:01.688Z,12.15
2022-11-24T13:51:54.386Z,12.17
2022-11-24T13:54:45.218Z,12.19
2022-11-24T13:57:35.655Z,12.11
2022-11-24T14:00:28.647Z,12.11
2022-11-24T14:03:27.200Z,12.04
2022-11-24T14:06:23.243Z,12.04
2022-11-24T14:09:32.365Z,12.14
2022-11-24T14:12:25.077Z,12.30
2022-11-24T14:15:27.358Z,12.15
2022-11-24T14:18:22.187Z,12.28
2022-11-24T14:21:29.018Z,12.36
2022-11-24T14:24:26.520Z,12.30
2022-11-24T14:27:18.467Z,12.31
2022-11-24T14:30:21.959Z,12.05
2022-11-24T14:33:15.947Z,12.01
2022-11-24T14:36:05.959Z,12.05
2022-11-24T14:38:55.272Z,11.99
2022-11-24T14:41:52.726Z,11.86
2022-11-24T14:44:51.178Z,11.75
2022-11-24T14:47:47.012Z,11.67
2022-11-24T14:50:36.917Z,11.66
2022-11-24T14:53:26.557Z,11.78
2022-11-24T14:56:28.100Z,11.63
2022-11-24T14:59:24.953Z,11.56
2022-11-24T15:02:43.532Z,11.64
2022-11-24T15:05:58.620Z,11.63
2022-11-24T15:08:50.678Z,11.56
2022-11-24T15:11:40.358Z,11.56
2022-11-24T15:14:50.522Z,11.51
2022-11-24T15:17:49.779Z,11.63
2022-11-24T15:20:45.783Z,11.54
2022-11-24T15:23:36.403Z,11.36
2022-11-24T15:26:33.067Z,11.23
2022-11-24T15:29:24.622Z,10.68
2022-11-24T15:32:16.074Z,10.07
2022-11-24T15:35:11.915Z,9.59
2022-11-24T15:38:01.213Z,9.45
2022-11-24T15:40:52.470Z,9.23
2022-11-24T15:43:42.456Z,9.12
2022-11-24T15:46:38.668Z,9.14
2022-11-24T15:49:28.094Z,9.04
2022-11-24T15:52:20.713Z,8.89
2022-11-24T15:55:20.069Z,8.88
2022-11-24T15:58:12.915Z,8.84
2022-11-24T16:01:02.330Z,8.83
2022-11-24T16:03:51.654Z,9.03
2022-11-24T16:06:41.135Z,9.11
2022-11-24T16:09:32.992Z,9.14
2022-11-24T16:12:22.278Z,9.10
2022-11-24T16:15:12.406Z,9.23
2022-11-24T16:18:01.660Z,9.17
2022-11-24T16:20:51.169Z,9.18
2022-11-24T16:23:40.508Z,9.21
2022-11-24T16:26:31.229Z,9.28
2022-11-24T16:29:22.657Z,9.30
2022-11-24T16:32:11.944Z,9.41
2022-11-24T16:35:01.493Z,9.47
2022-11-24T16:37:51.197Z,9.44
2022-11-24T16:40:40.444Z,9.53
2022-11-24T16:43:31.962Z,9.64
2022-11-24T16:46:23.406Z,9.60
2022-11-24T16:49:12.926Z,9.61
2022-11-24T16:52:02.270Z,9.63
2022-11-24T16:54:51.547Z,9.70
2022-11-24T16:57:40.778Z,9.77
2022-11-24T17:00:31.400Z,9.79
2022-11-24T17:03:21.485Z,9.75
2022-11-24T17:06:12.990Z,9.83
2022-11-24T17:09:02.571Z,9.80
2022-11-24T17:11:52.130Z,9.78
2022-11-24T17:14:41.485Z,9.87
2022-11-24T17:17:32.218Z,9.90
2022-11-24T17:20:21.507Z,9.84
2022-11-24T17:23:10.916Z,9.81
2022-11-24T17:26:03.584Z,9.69
2022-11-24T17:28:53.217Z,9.80
2022-11-24T17:31:42.529Z,9.78
2022-11-24T17:34:33.498Z,9.85
2022-11-24T17:37:23.292Z,9.85
2022-11-24T17:40:34.305Z,9.90
2022-11-24T17:43:23.833Z,9.90
2022-11-24T17:46:13.230Z,9.85
2022-11-24T17:49:03.055Z,9.87
2022-11-24T17:51:53.950Z,9.82
2022-11-24T17:54:46.991Z,9.78
2022-11-24T17:57:36.252Z,9.65
2022-11-24T18:00:25.891Z,9.81
2022-11-24T18:03:16.146Z,9.86
2022-11-24T18:06:10.570Z,9.82
2022-11-24T18:09:01.376Z,10.00
2022-11-24T18:11:52.145Z,10.09
2022-11-24T18:14:41.576Z,10.19
2022-11-24T18:17:31.117Z,10.11
2022-11-24T18:20:20.562Z,10.16
2022-11-24T18:23:09.799Z,10.09
2022-11-24T18:26:02.933Z,10.14
2022-11-24T18:28:52.357Z,10.28
2022-11-24T18:31:41.980Z,10.26
2022-11-24T18:34:31.303Z,10.16
2022-11-24T18:37:20.916Z,10.14
2022-11-24T18:40:11.314Z,10.18
2022-11-24T18:43:02.031Z,10.14
2022-11-24T18:45:53.236Z,10.13
2022-11-24T18:48:43.207Z,10.15
2022-11-24T18:51:32.519Z,10.04
2022-11-24T18:54:21.973Z,10.09
2022-11-24T18:57:11.841Z,10.15
2022-11-24T19:00:02.605Z,10.16
2022-11-24T19:02:52.346Z,10.14
2022-11-24T19:05:42.292Z,10.15
2022-11-24T19:08:31.725Z,10.15
2022-11-24T19:11:27.008Z,10.11
2022-11-24T19:14:19.177Z,10.08
2022-11-24T19:17:10.043Z,10.02
2022-11-24T19:19:59.300Z,10.00
2022-11-24T19:22:48.675Z,9.96
2022-11-24T19:25:37.983Z,9.90
2022-11-24T19:28:28.752Z,9.84
2022-11-24T19:31:19.505Z,9.87
2022-11-24T19:34:10.740Z,9.83
2022-11-24T19:37:00.147Z,9.77
2022-11-24T19:39:50.130Z,9.75
2022-11-24T19:42:39.531Z,9.70
2022-11-24T19:45:28.915Z,9.72
2022-11-24T19:48:18.228Z,9.68
2022-11-24T19:51:12.984Z,9.62
2022-11-24T19:54:03.328Z,9.64
2022-11-24T19:56:55.604Z,9.61
2022-11-24T19:59:45.880Z,9.58
2022-11-24T20:02:35.311Z,9.55
2022-11-24T20:05:24.751Z,9.54
2022-11-24T20:08:15.559Z,9.52
2022-11-24T20:11:05.928Z,9.56
2022-11-24T20:13:55.440Z,9.53
2022-11-24T20:16:46.738Z,9.61
2022-11-24T20:19:36.103Z,9.70
2022-11-24T20:22:25.667Z,9.68
2022-11-24T20:25:16.643Z,9.74
2022-11-24T20:28:06.548Z,9.70
2022-11-24T20:30:56.021Z,9.71
2022-11-24T20:33:46.248Z,9.69
2022-11-24T20:36:37.860Z,9.76
2022-11-24T20:39:29.134Z,9.81
2022-11-24T20:42:19.899Z,9.80
2022-11-24T20:45:09.940Z,9.91
2022-11-24T20:47:59.375Z,9.90
2022-11-24T20:50:51.489Z,9.79
2022-11-24T20:53:41.567Z,9.80
2022-11-24T20:56:33.209Z,9.75
2022-11-24T20:59:25.995Z,9.73
2022-11-24T21:02:15.422Z,9.76
2022-11-24T21:05:05.022Z,9.72
2022-11-24T21:07:54.563Z,9.68
2022-11-24T21:10:44.007Z,9.64
2022-11-24T21:13:35.862Z,9.52
2022-11-24T21:16:29.773Z,9.45
2022-11-24T21:19:19.296Z,9.44
2022-11-24T21:22:08.676Z,9.37
2022-11-24T21:24:58.007Z,9.36
2022-11-24T21:27:47.404Z,9.36
2022-11-24T21:30:37.521Z,9.31
2022-11-24T21:33:28.332Z,9.30
2022-11-24T21:36:20.808Z,9.28
2022-11-24T21:39:13.800Z,9.25
2022-11-24T21:42:03.109Z,9.32
2022-11-24T21:44:52.442Z,9.13
2022-11-24T21:47:42.415Z,9.16
2022-11-24T21:50:33.171Z,9.20
2022-11-24T21:53:22.508Z,9.19
2022-11-24T21:56:14.973Z,9.21
2022-11-24T21:59:04.392Z,9.25
2022-11-24T22:01:54.080Z,9.31
2022-11-24T22:04:43.430Z,9.24
2022-11-24T22:07:34.655Z,9.24
2022-11-24T22:10:24.021Z,9.30
2022-11-24T22:13:13.348Z,9.36
2022-11-24T22:16:04.726Z,9.36
2022-11-24T22:18:54.567Z,9.29
2022-11-24T22:21:43.988Z,9.33
2022-11-24T22:24:34.782Z,9.30
2022-11-24T22:27:24.223Z,9.30
2022-11-24T22:30:14.152Z,9.20
2022-11-24T22:33:03.526Z,9.20
2022-11-24T22:35:58.329Z,9.16
2022-11-24T22:38:48.482Z,9.21
2022-11-24T22:41:39.511Z,9.27
2022-11-24T22:44:29.825Z,9.18
2022-11-24T22:47:19.227Z,9.15
2022-11-24T22:50:10.141Z,9.21
2022-11-24T22:52:59.513Z,9.14
2022-11-24T22:55:48.843Z,9.19
2022-11-24T22:58:40.743Z,9.16
2022-11-24T23:01:33.715Z,9.14
2022-11-24T23:04:23.020Z,9.16
2022-11-24T23:07:12.424Z,9.16
2022-11-24T23:10:02.560Z,9.15
2022-11-24T23:12:51.835Z,9.15
2022-11-24T23:15:42.560Z,9.20
2022-11-24T23:18:32.660Z,9.11
2022-11-24T23:21:24.671Z,9.04
2022-11-24T23:24:14.077Z,9.10
2022-11-24T23:27:03.627Z,9.09
2022-11-24T23:29:52.974Z,9.05
2022-11-24T23:32:43.651Z,9.06
2022-11-24T23:35:34.327Z,9.06
2022-11-24T23:38:28.709Z,9.05
2022-11-24T23:41:20.921Z,9.09
2022-11-24T23:44:10.371Z,8.99
2022-11-24T23:46:59.999Z,9.01
2022-11-24T23:49:50.959Z,9.00
2022-11-24T23:52:40.388Z,9.03
2022-11-24T23:55:29.666Z,9.05
2022-11-24T23:58:18.932Z,9.04
